PAAQ

Palmer Municipal Airport

Airport
ICAO code
PAAQ
IATA Code
PAQ
Summary
ICAO Region
NAM
ICAO Territory
Location

, Alaska

Serving
Palmer
Elevation
242 ft
Coordinates
61° 35' 42" N , 149° 5' 19" W
Metar
PAAQ 240653Z AUTO 08003KT 10SM SCT021 OVC030 15/12 A2999 RMK AO2 SLP155 T01500122 TSNO

Runways

Designator Length Width Surface Rops
16S/34S 475 18 GVL No/No
9/27 1102 23 ASP No/No
16/34 1831 30 ASP No/No

Airport map

Aerial View

SKYbrary Partners:

Safety knowledge contributed by: